Time;durP1;ratioP1;P1;durP2;ratioP2;P2;SDS_P1;SDS_P2;PMS_P1;PMS_P2;Temp;Humidity;BMP_temperature;BMP_pressure;BME280_temperature;BME280_humidity;BME280_pressure;Samples;Min_cycle;Max_cycle;Signal;HPM_P1;HPM_P2
2021/06/16 00:02:15;;;;;;;;;;;11.90;99.90;;;;;;5094111;28;19952;-69
2021/06/16 00:04:42;;;;;;;;;;;12.00;99.90;;;;;;5093971;28;19908;-69
2021/06/16 00:07:09;;;;;;;;;;;12.00;99.90;;;;;;5094053;28;19908;-69
2021/06/16 00:09:36;;;;;;;;;;;12.10;99.90;;;;;;5093663;28;19916;-69
2021/06/16 00:12:03;;;;;;;;;;;12.20;99.90;;;;;;5093685;28;19971;-67
2021/06/16 00:14:29;;;;;;;;;;;12.20;99.90;;;;;;5093700;28;19919;-70
2021/06/16 00:16:56;;;;;;;;;;;12.30;99.90;;;;;;5093684;28;19912;-68
2021/06/16 00:19:23;;;;;;;;;;;12.40;99.90;;;;;;5093617;28;20273;-69
2021/06/16 00:21:49;;;;;;;;;;;12.50;99.90;;;;;;5093574;28;19912;-72
2021/06/16 00:24:19;;;;;;;;;;;12.50;99.90;;;;;;5093705;28;19909;-68
2021/06/16 00:26:46;;;;;;;;;;;12.60;99.90;;;;;;5093810;28;20010;-68
2021/06/16 00:29:13;;;;;;;;;;;12.60;99.90;;;;;;5093677;28;19916;-68
2021/06/16 00:31:40;;;;;;;;;;;12.70;99.90;;;;;;5093219;28;19912;-70
2021/06/16 00:34:06;;;;;;;;;;;12.80;99.90;;;;;;5093278;28;19908;-67
2021/06/16 00:36:33;;;;;;;;;;;12.90;99.90;;;;;;5093541;28;20312;-67
2021/06/16 00:39:00;;;;;;;;;;;13.00;99.90;;;;;;5092015;28;19912;-68
2021/06/16 00:41:27;;;;;;;;;;;13.10;99.90;;;;;;5093222;28;19988;-68
2021/06/16 00:43:54;;;;;;;;;;;13.20;99.90;;;;;;5093297;28;19915;-67
2021/06/16 00:46:21;;;;;;;;;;;13.30;99.90;;;;;;5093437;28;19908;-69
2021/06/16 00:48:47;;;;;;;;;;;13.40;99.90;;;;;;5093350;28;19916;-67
2021/06/16 00:51:14;;;;;;;;;;;13.50;99.90;;;;;;5093259;28;19908;-68
2021/06/16 00:53:41;;;;;;;;;;;13.50;99.90;;;;;;5092928;28;20346;-67
2021/06/16 00:56:07;;;;;;;;;;;13.50;99.90;;;;;;5093097;28;19935;-69
2021/06/16 00:58:34;;;;;;;;;;;13.60;99.90;;;;;;5093296;28;19916;-69
2021/06/16 01:01:09;;;;;;;;;;;13.80;99.90;;;;;;5093306;28;19930;-68
2021/06/16 01:03:36;;;;;;;;;;;14.00;99.90;;;;;;5093010;28;20358;-68
2021/06/16 01:06:04;;;;;;;;;;;14.70;99.90;;;;;;5093344;28;19908;-67
2021/06/16 01:08:35;;;;;;;;;;;15.80;99.90;;;;;;5097207;28;19919;-67
2021/06/16 01:11:03;;;;;;;;;;;15.90;99.90;;;;;;5097399;28;19915;-68
2021/06/16 01:13:31;;;;;;;;;;;16.10;99.90;;;;;;5095893;28;19931;-68
2021/06/16 01:15:58;;;;;;;;;;;16.70;99.90;;;;;;5097287;28;19950;-68
2021/06/16 01:18:25;;;;;;;;;;;16.90;99.90;;;;;;5097001;28;19909;-68
2021/06/16 01:20:54;;;;;;;;;;;16.90;99.90;;;;;;5097155;28;19962;-68
2021/06/16 01:23:36;;;;;;;;;;;17.10;99.90;;;;;;5097136;28;19908;-68
2021/06/16 01:26:03;;;;;;;;;;;16.90;99.90;;;;;;5097111;28;20020;-67
2021/06/16 01:28:32;;;;;;;;;;;16.40;99.90;;;;;;5096910;28;19923;-68
2021/06/16 01:30:59;;;;;;;;;;;16.30;99.90;;;;;;5096900;28;20332;-68
2021/06/16 01:33:26;;;;;;;;;;;16.10;99.90;;;;;;5096702;28;19962;-68
2021/06/16 01:35:53;;;;;;;;;;;15.90;99.90;;;;;;5096569;28;19969;-66
2021/06/16 01:38:21;;;;;;;;;;;15.70;99.90;;;;;;5096724;28;19918;-66
2021/06/16 01:40:50;;;;;;;;;;;15.60;99.90;;;;;;5096910;28;20369;-68
2021/06/16 01:43:17;;;;;;;;;;;15.50;99.90;;;;;;5096710;28;19948;-70
2021/06/16 01:45:45;;;;;;;;;;;15.40;99.90;;;;;;5096426;28;20427;-68
2021/06/16 01:48:14;;;;;;;;;;;15.30;99.90;;;;;;5096296;28;19916;-67
2021/06/16 01:50:42;;;;;;;;;;;15.40;99.90;;;;;;5096548;28;20259;-69
2021/06/16 01:53:09;;;;;;;;;;;15.30;99.90;;;;;;5096476;28;20285;-67
2021/06/16 01:55:36;;;;;;;;;;;15.20;99.90;;;;;;5096245;28;19909;-68
2021/06/16 01:58:03;;;;;;;;;;;15.20;99.90;;;;;;5096353;28;19993;-68
2021/06/16 02:00:30;;;;;;;;;;;15.10;99.90;;;;;;5096218;28;20020;-68
2021/06/16 02:02:58;;;;;;;;;;;15.10;99.90;;;;;;5096348;28;19908;-68
2021/06/16 02:05:25;;;;;;;;;;;15.20;99.90;;;;;;5096166;28;20438;-69
2021/06/16 02:08:15;;;;;;;;;;;15.20;99.90;;;;;;5094829;28;20021;-69
2021/06/16 02:10:46;;;;;;;;;;;15.20;99.90;;;;;;5085599;28;19912;-69
2021/06/16 02:13:14;;;;;;;;;;;15.40;99.90;;;;;;5096058;28;19924;-70
2021/06/16 02:16:01;;;;;;;;;;;15.30;99.90;;;;;;5094539;28;19916;-69
2021/06/16 02:18:39;;;;;;;;;;;15.30;99.90;;;;;;5094814;28;20011;-70
2021/06/16 02:21:07;;;;;;;;;;;15.40;99.90;;;;;;5095961;28;19952;-69
2021/06/16 02:23:34;;;;;;;;;;;15.50;99.90;;;;;;5095587;28;19908;-70
2021/06/16 02:26:01;;;;;;;;;;;15.50;99.90;;;;;;5095790;28;19912;-67
2021/06/16 02:28:27;;;;;;;;;;;15.50;99.90;;;;;;5095603;28;19912;-67
2021/06/16 02:30:54;;;;;;;;;;;15.60;99.90;;;;;;5095562;28;20328;-67
2021/06/16 02:33:21;;;;;;;;;;;15.80;99.90;;;;;;5095423;28;20393;-67
2021/06/16 02:35:48;;;;;;;;;;;15.90;99.90;;;;;;5095068;28;19999;-67
2021/06/16 02:38:18;;;;;;;;;;;16.00;99.90;;;;;;5095243;28;20329;-67
2021/06/16 02:40:45;;;;;;;;;;;16.10;99.90;;;;;;5095094;28;20317;-68
2021/06/16 02:43:12;;;;;;;;;;;16.10;99.90;;;;;;5095279;28;19908;-67
2021/06/16 02:45:39;;;;;;;;;;;16.10;99.90;;;;;;5095019;28;19908;-68
2021/06/16 02:48:07;;;;;;;;;;;16.00;99.90;;;;;;5095162;28;19984;-67
2021/06/16 02:50:34;;;;;;;;;;;16.00;99.90;;;;;;5095265;28;19909;-67
2021/06/16 02:53:03;;;;;;;;;;;16.00;99.90;;;;;;5095286;28;20302;-67
2021/06/16 02:55:30;;;;;;;;;;;16.10;99.90;;;;;;5095328;28;20001;-66
2021/06/16 02:57:57;;;;;;;;;;;16.30;99.90;;;;;;5095423;28;19916;-67
2021/06/16 03:00:24;;;;;;;;;;;16.30;99.90;;;;;;5095040;28;19908;-67
2021/06/16 03:02:51;;;;;;;;;;;16.30;99.90;;;;;;5094874;28;19911;-67
2021/06/16 03:05:24;;;;;;;;;;;16.20;99.90;;;;;;5094980;28;20300;-66
2021/06/16 03:07:53;;;;;;;;;;;16.20;99.90;;;;;;5094599;28;19914;-66
2021/06/16 03:10:21;;;;;;;;;;;16.20;99.90;;;;;;5094996;28;20086;-67
2021/06/16 03:12:49;;;;;;;;;;;16.20;99.90;;;;;;5094710;28;19920;-66
2021/06/16 03:15:16;;;;;;;;;;;16.20;99.90;;;;;;5085515;28;19943;-67
2021/06/16 03:17:44;;;;;;;;;;;16.20;99.90;;;;;;5072496;28;19909;-69
2021/06/16 03:20:11;;;;;;;;;;;16.20;99.90;;;;;;5074710;28;20358;-67
2021/06/16 03:22:38;;;;;;;;;;;16.20;99.90;;;;;;5074964;28;19944;-68
2021/06/16 03:25:06;;;;;;;;;;;16.10;99.90;;;;;;5074860;28;19909;-68
2021/06/16 03:27:33;;;;;;;;;;;16.30;99.90;;;;;;5075734;28;19915;-67
2021/06/16 03:29:59;;;;;;;;;;;16.40;99.90;;;;;;5074919;28;19924;-67
2021/06/16 03:32:27;;;;;;;;;;;16.40;99.90;;;;;;5074606;28;19940;-69
2021/06/16 03:34:54;;;;;;;;;;;16.30;99.90;;;;;;5074542;28;19934;-68
2021/06/16 03:37:21;;;;;;;;;;;16.20;99.90;;;;;;5072735;28;19913;-67
2021/06/16 03:39:51;;;;;;;;;;;16.20;99.90;;;;;;5074715;28;19944;-68
2021/06/16 03:42:21;;;;;;;;;;;16.10;99.90;;;;;;5073663;28;19909;-67
2021/06/16 03:44:48;;;;;;;;;;;16.20;99.90;;;;;;5074144;28;19991;-68
2021/06/16 03:47:16;;;;;;;;;;;16.20;99.90;;;;;;5074336;28;20012;-67
2021/06/16 03:49:43;;;;;;;;;;;16.40;99.90;;;;;;5074135;28;19916;-67
2021/06/16 03:52:11;;;;;;;;;;;16.50;99.90;;;;;;5072836;28;19912;-66
2021/06/16 03:54:39;;;;;;;;;;;16.70;99.90;;;;;;5073491;28;19918;-67
2021/06/16 03:57:07;;;;;;;;;;;16.70;99.90;;;;;;5072879;28;19909;-67
2021/06/16 03:59:36;;;;;;;;;;;16.70;99.90;;;;;;5073554;28;19943;-67
2021/06/16 04:02:03;;;;;;;;;;;16.60;99.90;;;;;;5073707;28;20362;-67
2021/06/16 04:04:31;;;;;;;;;;;16.50;99.90;;;;;;5073609;28;19908;-67
2021/06/16 04:07:01;;;;;;;;;;;16.50;99.90;;;;;;5073681;28;19908;-67
2021/06/16 04:09:28;;;;;;;;;;;16.40;99.90;;;;;;5073501;28;19923;-67
2021/06/16 04:11:55;;;;;;;;;;;16.40;99.90;;;;;;5073219;28;20379;-67
2021/06/16 04:14:23;;;;;;;;;;;16.40;99.90;;;;;;5072156;28;19995;-68
2021/06/16 04:16:53;;;;;;;;;;;16.40;99.90;;;;;;5073473;28;19961;-67
2021/06/16 04:19:20;;;;;;;;;;;16.50;99.90;;;;;;5073236;28;19956;-68
2021/06/16 04:21:46;;;;;;;;;;;16.60;99.90;;;;;;5072917;28;19909;-68
2021/06/16 04:24:13;;;;;;;;;;;16.70;99.90;;;;;;5073227;28;19919;-67
2021/06/16 04:26:46;;;;;;;;;;;16.80;99.90;;;;;;5073230;28;20362;-70
2021/06/16 04:29:12;;;;;;;;;;;16.70;99.90;;;;;;5071858;28;19916;-68
2021/06/16 04:31:39;;;;;;;;;;;16.80;99.90;;;;;;5072990;28;19927;-69
2021/06/16 04:34:06;;;;;;;;;;;16.90;99.90;;;;;;5072880;28;19914;-71
2021/06/16 04:36:32;;;;;;;;;;;17.00;99.90;;;;;;5073250;28;19915;-70
2021/06/16 04:38:59;;;;;;;;;;;16.90;99.90;;;;;;5072981;28;19921;-67
2021/06/16 04:41:26;;;;;;;;;;;17.00;99.90;;;;;;5072776;28;19961;-68
2021/06/16 04:43:53;;;;;;;;;;;17.10;99.90;;;;;;5073003;28;19954;-70
2021/06/16 04:46:19;;;;;;;;;;;17.10;99.90;;;;;;5073152;28;19917;-68
2021/06/16 04:48:46;;;;;;;;;;;17.00;99.90;;;;;;5072885;28;19917;-67
2021/06/16 04:51:13;;;;;;;;;;;16.80;99.90;;;;;;5072958;28;19914;-67
2021/06/16 04:53:39;;;;;;;;;;;16.70;99.90;;;;;;5072529;28;19912;-67
2021/06/16 04:56:06;;;;;;;;;;;16.70;99.90;;;;;;5073103;28;20355;-67
2021/06/16 04:58:33;;;;;;;;;;;16.70;99.90;;;;;;5073077;28;19908;-68
2021/06/16 05:01:00;;;;;;;;;;;16.80;99.90;;;;;;5071340;28;20011;-67
2021/06/16 05:03:26;;;;;;;;;;;16.80;99.90;;;;;;5072650;28;20033;-67
2021/06/16 05:05:53;;;;;;;;;;;16.70;99.90;;;;;;5072718;28;19920;-67
2021/06/16 05:08:20;;;;;;;;;;;16.60;99.90;;;;;;5072813;28;19969;-67
2021/06/16 05:10:46;;;;;;;;;;;16.50;99.90;;;;;;5072649;28;20321;-68
2021/06/16 05:13:13;;;;;;;;;;;16.40;99.90;;;;;;5072629;28;20062;-67
2021/06/16 05:15:47;;;;;;;;;;;16.30;99.90;;;;;;5072632;28;20062;-72
2021/06/16 05:18:14;;;;;;;;;;;16.30;99.90;;;;;;5072642;28;19913;-67
2021/06/16 05:20:40;;;;;;;;;;;16.30;99.90;;;;;;5072767;28;19919;-67
2021/06/16 05:23:07;;;;;;;;;;;16.30;99.90;;;;;;5072685;28;20005;-68
2021/06/16 05:25:34;;;;;;;;;;;16.30;99.90;;;;;;5068419;28;19908;-67
2021/06/16 05:28:00;;;;;;;;;;;16.20;99.90;;;;;;5072668;28;19912;-68
2021/06/16 05:30:42;;;;;;;;;;;;;;;;;;;;;
2021/06/16 05:33:09;;;;;;;;;;;16.20;99.90;;;;;;5072181;28;19916;-69
2021/06/16 05:35:36;;;;;;;;;;;16.20;99.90;;;;;;5072108;28;20003;-68
2021/06/16 05:38:03;;;;;;;;;;;16.30;99.90;;;;;;5072449;28;19938;-68
2021/06/16 05:40:30;;;;;;;;;;;16.20;99.90;;;;;;5072591;28;20108;-68
2021/06/16 05:42:57;;;;;;;;;;;16.20;99.90;;;;;;5072418;28;19909;-68
2021/06/16 05:45:23;;;;;;;;;;;16.10;99.90;;;;;;5072429;28;20381;-67
2021/06/16 05:47:50;;;;;;;;;;;16.10;99.90;;;;;;5072040;28;19919;-67
2021/06/16 05:50:17;;;;;;;;;;;16.20;99.90;;;;;;5072423;28;19912;-67
2021/06/16 05:52:44;;;;;;;;;;;16.20;99.90;;;;;;5071585;28;19956;-68
2021/06/16 05:55:12;;;;;;;;;;;16.20;99.90;;;;;;5075743;28;19909;-68
2021/06/16 05:57:39;;;;;;;;;;;16.20;99.90;;;;;;5076208;28;19909;-68
2021/06/16 06:00:07;;;;;;;;;;;16.30;99.90;;;;;;5076180;28;19908;-68
2021/06/16 06:02:33;;;;;;;;;;;16.30;99.90;;;;;;5074556;28;20386;-67
2021/06/16 06:05:00;;;;;;;;;;;16.30;99.90;;;;;;5075639;28;19919;-68
2021/06/16 06:07:27;;;;;;;;;;;16.30;99.90;;;;;;5075987;28;19909;-67
2021/06/16 06:09:53;;;;;;;;;;;16.20;99.90;;;;;;5075504;28;20287;-67
2021/06/16 06:12:20;;;;;;;;;;;16.10;99.90;;;;;;5075582;28;19927;-68
2021/06/16 06:14:47;;;;;;;;;;;16.10;99.90;;;;;;5075644;28;19908;-69
2021/06/16 06:17:13;;;;;;;;;;;16.00;99.90;;;;;;5075491;28;19909;-69
2021/06/16 06:19:41;;;;;;;;;;;15.90;99.90;;;;;;5075510;28;19920;-68
2021/06/16 06:22:08;;;;;;;;;;;15.90;99.90;;;;;;5075720;28;20018;-68
2021/06/16 06:24:34;;;;;;;;;;;15.90;99.90;;;;;;5075766;28;19999;-68
2021/06/16 06:27:01;;;;;;;;;;;15.90;99.90;;;;;;5075347;28;19915;-67
2021/06/16 06:29:28;;;;;;;;;;;15.90;99.90;;;;;;5074714;28;19917;-68
2021/06/16 06:31:54;;;;;;;;;;;15.90;99.90;;;;;;5074816;28;19943;-68
2021/06/16 06:34:21;;;;;;;;;;;15.90;99.90;;;;;;5075382;28;19909;-68
2021/06/16 06:36:48;;;;;;;;;;;15.90;99.90;;;;;;5075510;28;19969;-68
2021/06/16 06:39:15;;;;;;;;;;;15.90;99.90;;;;;;5075474;28;19948;-68
2021/06/16 06:41:45;;;;;;;;;;;15.90;99.90;;;;;;5075225;28;19954;-68
2021/06/16 06:44:12;;;;;;;;;;;15.90;99.90;;;;;;5075403;28;19916;-68
2021/06/16 06:46:39;;;;;;;;;;;15.90;99.90;;;;;;5075007;28;19909;-69
2021/06/16 06:49:05;;;;;;;;;;;15.80;99.90;;;;;;5075026;28;19921;-68
2021/06/16 06:51:32;;;;;;;;;;;15.80;99.90;;;;;;5074598;28;19909;-67
2021/06/16 06:53:58;;;;;;;;;;;15.80;99.90;;;;;;5075101;28;19908;-68
2021/06/16 06:56:25;;;;;;;;;;;15.80;99.90;;;;;;5073613;28;20316;-67
2021/06/16 06:58:52;;;;;;;;;;;15.80;99.90;;;;;;5074967;28;20004;-67
2021/06/16 07:01:18;;;;;;;;;;;15.80;99.90;;;;;;5074731;28;19995;-67
2021/06/16 07:03:45;;;;;;;;;;;15.80;99.90;;;;;;5074667;28;19908;-68
2021/06/16 07:06:12;;;;;;;;;;;15.80;99.90;;;;;;5074558;28;19909;-68
2021/06/16 07:08:38;;;;;;;;;;;15.80;99.90;;;;;;5074701;28;19924;-69
2021/06/16 07:11:05;;;;;;;;;;;15.70;99.90;;;;;;5074784;28;19980;-68
2021/06/16 07:13:31;;;;;;;;;;;15.70;99.90;;;;;;5074196;28;19920;-67
2021/06/16 07:15:58;;;;;;;;;;;15.60;99.90;;;;;;5074741;28;19909;-67
2021/06/16 07:18:25;;;;;;;;;;;15.60;99.90;;;;;;5074404;28;19915;-68
2021/06/16 07:20:51;;;;;;;;;;;15.50;99.90;;;;;;5074716;28;19912;-68
2021/06/16 07:23:18;;;;;;;;;;;15.50;99.90;;;;;;5074579;28;20359;-68
2021/06/16 07:25:45;;;;;;;;;;;15.50;99.90;;;;;;5074182;28;19916;-69
2021/06/16 07:28:11;;;;;;;;;;;15.50;99.90;;;;;;5074213;28;19948;-68
2021/06/16 07:30:38;;;;;;;;;;;15.40;99.90;;;;;;5074384;28;20264;-68
2021/06/16 07:33:04;;;;;;;;;;;15.30;99.90;;;;;;5074188;28;19920;-68
2021/06/16 07:35:31;;;;;;;;;;;15.30;99.90;;;;;;5074018;28;20431;-68
2021/06/16 07:37:58;;;;;;;;;;;15.30;99.90;;;;;;5073830;28;19930;-68
2021/06/16 07:40:24;;;;;;;;;;;15.40;99.90;;;;;;5072470;28;20754;-67
2021/06/16 07:42:51;;;;;;;;;;;15.40;99.90;;;;;;5071370;28;19915;-68
2021/06/16 07:45:18;;;;;;;;;;;15.50;99.90;;;;;;5070769;28;19929;-68
2021/06/16 07:47:44;;;;;;;;;;;15.50;99.90;;;;;;5071535;28;19908;-67
2021/06/16 07:50:11;;;;;;;;;;;15.60;99.90;;;;;;5071865;28;19916;-69
2021/06/16 07:52:38;;;;;;;;;;;15.60;99.90;;;;;;5071716;28;20334;-67
2021/06/16 07:55:06;;;;;;;;;;;15.70;99.90;;;;;;5071581;28;19999;-68
2021/06/16 07:57:32;;;;;;;;;;;15.70;99.90;;;;;;5071465;28;20354;-67
2021/06/16 07:59:59;;;;;;;;;;;15.70;99.90;;;;;;5070453;28;19915;-68
2021/06/16 08:02:27;;;;;;;;;;;15.70;99.90;;;;;;5071440;28;19916;-67
2021/06/16 08:04:54;;;;;;;;;;;15.70;99.90;;;;;;5071631;28;20358;-67
2021/06/16 08:07:20;;;;;;;;;;;15.70;99.90;;;;;;5071038;28;19912;-68
2021/06/16 08:09:47;;;;;;;;;;;15.70;99.90;;;;;;5071118;28;19917;-69
2021/06/16 08:12:16;;;;;;;;;;;15.70;99.90;;;;;;5071344;28;19973;-70
2021/06/16 08:14:43;;;;;;;;;;;15.70;99.90;;;;;;5071212;28;20325;-67
2021/06/16 08:17:10;;;;;;;;;;;15.60;99.90;;;;;;5069921;28;19934;-68
2021/06/16 08:19:37;;;;;;;;;;;15.70;99.90;;;;;;5070729;28;20034;-68
2021/06/16 08:22:05;;;;;;;;;;;15.70;99.90;;;;;;5071357;28;19919;-68
2021/06/16 08:24:31;;;;;;;;;;;15.70;99.90;;;;;;5071317;28;20019;-67
2021/06/16 08:26:58;;;;;;;;;;;15.70;99.90;;;;;;5071153;28;19908;-67
2021/06/16 08:29:25;;;;;;;;;;;15.60;99.90;;;;;;5071364;28;20024;-67
2021/06/16 08:31:51;;;;;;;;;;;15.60;99.90;;;;;;5070806;28;19908;-68
2021/06/16 08:34:18;;;;;;;;;;;15.60;99.90;;;;;;5070541;28;19909;-67
2021/06/16 08:36:46;;;;;;;;;;;15.60;99.90;;;;;;5071107;28;19927;-68
2021/06/16 08:39:13;;;;;;;;;;;15.60;99.90;;;;;;5071117;28;19908;-67
2021/06/16 08:41:40;;;;;;;;;;;15.60;99.90;;;;;;5070968;28;19943;-67
2021/06/16 08:44:07;;;;;;;;;;;15.60;99.90;;;;;;5071140;28;19915;-67
2021/06/16 08:46:34;;;;;;;;;;;15.60;99.90;;;;;;5070225;28;19909;-67
2021/06/16 08:49:05;;;;;;;;;;;15.70;99.90;;;;;;5070135;28;20282;-67
2021/06/16 08:51:33;;;;;;;;;;;15.60;99.90;;;;;;5070646;28;20458;-67
2021/06/16 08:53:59;;;;;;;;;;;15.70;99.90;;;;;;5070732;28;19912;-67
2021/06/16 08:56:26;;;;;;;;;;;15.70;99.90;;;;;;5070746;28;19913;-68
2021/06/16 08:58:53;;;;;;;;;;;15.70;99.90;;;;;;5070491;28;19913;-68
2021/06/16 09:01:20;;;;;;;;;;;15.70;99.90;;;;;;5070373;28;20540;-68
2021/06/16 09:03:47;;;;;;;;;;;15.70;99.90;;;;;;5069883;28;19909;-70
2021/06/16 09:06:15;;;;;;;;;;;15.70;99.90;;;;;;5071953;28;19913;-71
2021/06/16 09:08:52;;;;;;;;;;;15.60;99.90;;;;;;5072527;28;19999;-68
2021/06/16 09:11:19;;;;;;;;;;;15.60;99.90;;;;;;5072859;28;19908;-68
2021/06/16 09:13:46;;;;;;;;;;;15.50;99.90;;;;;;5072395;28;20290;-68
2021/06/16 09:16:31;;;;;;;;;;;15.30;99.90;;;;;;5086487;28;19908;-69
2021/06/16 09:18:59;;;;;;;;;;;15.20;99.90;;;;;;5092811;28;20335;-70
2021/06/16 09:21:35;;;;;;;;;;;15.20;99.90;;;;;;5092533;28;19957;-69
2021/06/16 09:24:01;;;;;;;;;;;15.20;99.90;;;;;;5093045;28;19908;-67
2021/06/16 09:26:32;;;;;;;;;;;15.20;99.90;;;;;;5093070;28;19998;-69
2021/06/16 09:28:59;;;;;;;;;;;15.20;99.90;;;;;;5090070;28;19927;-67
2021/06/16 09:31:26;;;;;;;;;;;15.10;99.90;;;;;;5085975;28;19912;-68
2021/06/16 09:33:56;;;;;;;;;;;15.00;99.90;;;;;;5076609;28;19908;-68
2021/06/16 09:36:24;;;;;;;;;;;14.90;99.90;;;;;;5076627;28;19915;-69
2021/06/16 09:38:51;;;;;;;;;;;14.90;99.90;;;;;;5084953;28;19976;-69
2021/06/16 09:41:19;;;;;;;;;;;14.80;99.90;;;;;;5081864;28;19952;-70
2021/06/16 09:43:47;;;;;;;;;;;14.70;99.90;;;;;;5076166;28;19909;-71
2021/06/16 09:46:14;;;;;;;;;;;14.70;99.90;;;;;;5075640;28;20378;-68
2021/06/16 09:48:45;;;;;;;;;;;14.70;99.90;;;;;;5081388;28;19920;-70
2021/06/16 09:51:11;;;;;;;;;;;14.70;99.90;;;;;;5086301;28;19931;-68
2021/06/16 09:53:56;;;;;;;;;;;14.70;99.90;;;;;;5084362;28;19919;-70
2021/06/16 09:56:23;;;;;;;;;;;14.70;99.90;;;;;;5083676;28;20275;-68
2021/06/16 09:58:51;;;;;;;;;;;14.80;99.90;;;;;;5083535;28;19924;-70
2021/06/16 10:01:18;;;;;;;;;;;14.90;99.90;;;;;;5086542;28;19921;-70
2021/06/16 10:03:45;;;;;;;;;;;14.90;99.90;;;;;;5083370;28;20286;-70
2021/06/16 10:06:15;;;;;;;;;;;14.80;99.90;;;;;;5076470;28;19982;-70
2021/06/16 10:08:46;;;;;;;;;;;14.80;99.90;;;;;;5087222;28;19965;-70
2021/06/16 10:11:17;;;;;;;;;;;14.90;99.90;;;;;;5096319;28;19947;-69
2021/06/16 10:13:44;;;;;;;;;;;14.80;99.90;;;;;;5095841;28;19928;-70
2021/06/16 10:16:11;;;;;;;;;;;14.90;99.90;;;;;;5095161;28;19915;-70
2021/06/16 10:18:43;;;;;;;;;;;14.80;99.90;;;;;;5095740;28;19926;-70
2021/06/16 10:21:13;;;;;;;;;;;14.70;99.90;;;;;;5096119;28;19909;-71
2021/06/16 10:23:40;;;;;;;;;;;14.70;99.90;;;;;;5095929;28;19933;-70
2021/06/16 10:26:10;;;;;;;;;;;14.60;99.90;;;;;;5096056;28;19908;-70
2021/06/16 10:28:39;;;;;;;;;;;14.60;99.90;;;;;;5095866;28;19925;-70
2021/06/16 10:31:07;;;;;;;;;;;14.60;99.90;;;;;;5095409;28;19965;-70
2021/06/16 10:33:35;;;;;;;;;;;14.60;99.90;;;;;;5095521;28;19908;-70
2021/06/16 10:36:08;;;;;;;;;;;14.60;99.90;;;;;;5095798;28;19915;-68
2021/06/16 10:38:35;;;;;;;;;;;14.60;99.90;;;;;;5095692;28;20431;-70
2021/06/16 10:41:01;;;;;;;;;;;14.60;99.90;;;;;;5094547;28;20569;-71
2021/06/16 10:43:29;;;;;;;;;;;14.70;99.90;;;;;;5095593;28;19908;-69
2021/06/16 10:45:57;;;;;;;;;;;14.70;99.90;;;;;;5095457;28;20276;-70
2021/06/16 10:48:43;;;;;;;;;;;14.80;99.90;;;;;;5086615;28;19919;-69
2021/06/16 10:51:22;;;;;;;;;;;14.80;99.90;;;;;;5077772;28;19947;-71
2021/06/16 10:54:07;;;;;;;;;;;14.80;99.90;;;;;;5073818;28;19908;-70
2021/06/16 10:56:41;;;;;;;;;;;14.90;99.90;;;;;;5074313;28;19908;-71
2021/06/16 10:59:08;;;;;;;;;;;14.90;99.90;;;;;;5073426;28;19913;-71
2021/06/16 11:01:51;;;;;;;;;;;14.90;99.90;;;;;;5074694;28;19909;-70
2021/06/16 11:04:37;;;;;;;;;;;14.90;99.90;;;;;;5082025;28;19951;-71
2021/06/16 11:07:05;;;;;;;;;;;14.90;99.90;;;;;;5096587;28;19981;-68
2021/06/16 11:10:07;;;;;;;;;;;15.00;99.90;;;;;;5100350;28;19916;-71
2021/06/16 11:12:37;;;;;;;;;;;15.00;99.90;;;;;;5029139;28;19922;-68
2021/06/16 11:15:05;;;;;;;;;;;15.00;99.90;;;;;;5078360;28;19962;-70
2021/06/16 11:17:35;;;;;;;;;;;15.00;99.90;;;;;;5089075;28;19909;-70
2021/06/16 11:20:07;;;;;;;;;;;15.00;99.90;;;;;;5086355;28;20642;-70
2021/06/16 11:22:35;;;;;;;;;;;15.10;99.90;;;;;;5081535;28;20029;-71
2021/06/16 11:25:29;;;;;;;;;;;15.00;99.90;;;;;;5083724;28;20011;-70
2021/06/16 11:28:07;;;;;;;;;;;15.00;99.90;;;;;;5081821;28;19908;-68
2021/06/16 11:30:52;;;;;;;;;;;15.00;99.90;;;;;;5080984;28;19928;-69
2021/06/16 11:33:22;;;;;;;;;;;15.00;99.90;;;;;;5081804;28;20021;-70
2021/06/16 11:35:52;;;;;;;;;;;15.00;99.90;;;;;;5080482;28;19908;-69
2021/06/16 11:38:18;;;;;;;;;;;14.90;99.90;;;;;;5081190;28;19915;-70
2021/06/16 11:40:52;;;;;;;;;;;14.90;99.90;;;;;;5082464;28;19916;-67
2021/06/16 11:43:37;;;;;;;;;;;14.90;99.90;;;;;;5081744;28;20367;-68
2021/06/16 11:46:30;;;;;;;;;;;15.00;99.90;;;;;;5081724;28;19948;-71
2021/06/16 11:49:02;;;;;;;;;;;15.00;99.90;;;;;;5072435;28;19968;-71
2021/06/16 11:51:30;;;;;;;;;;;15.00;99.90;;;;;;5079155;28;19908;-69
2021/06/16 11:54:23;;;;;;;;;;;15.10;99.90;;;;;;5081511;28;19916;-71
2021/06/16 11:56:51;;;;;;;;;;;15.10;99.90;;;;;;5078322;28;19961;-70
2021/06/16 11:59:29;;;;;;;;;;;15.10;99.90;;;;;;5078339;28;20391;-69
2021/06/16 12:02:15;;;;;;;;;;;15.10;99.90;;;;;;5081147;28;19916;-70
2021/06/16 12:04:53;;;;;;;;;;;15.10;99.90;;;;;;5078032;28;19908;-69
2021/06/16 12:07:32;;;;;;;;;;;15.10;99.90;;;;;;5079212;28;19913;-69
2021/06/16 12:10:04;;;;;;;;;;;15.10;99.90;;;;;;5080041;28;19963;-67
2021/06/16 12:12:48;;;;;;;;;;;15.10;99.90;;;;;;5085864;28;19930;-69
2021/06/16 12:15:16;;;;;;;;;;;15.00;99.90;;;;;;5091614;28;19911;-71
2021/06/16 12:17:58;;;;;;;;;;;15.00;99.90;;;;;;5091649;28;19912;-71
2021/06/16 12:20:25;;;;;;;;;;;15.00;99.90;;;;;;5091631;28;19912;-68
2021/06/16 12:22:52;;;;;;;;;;;15.00;99.90;;;;;;5091906;28;19961;-69
2021/06/16 12:25:26;;;;;;;;;;;15.00;99.90;;;;;;5091830;28;19931;-67
2021/06/16 12:27:53;;;;;;;;;;;15.00;99.90;;;;;;5091443;28;19915;-69
2021/06/16 12:30:21;;;;;;;;;;;15.10;99.90;;;;;;5091019;28;19959;-67
2021/06/16 12:33:11;;;;;;;;;;;15.10;99.90;;;;;;5091529;28;20007;-69
2021/06/16 12:35:46;;;;;;;;;;;14.90;99.90;;;;;;5091507;28;19908;-68
2021/06/16 12:38:13;;;;;;;;;;;14.70;99.90;;;;;;5091268;28;20007;-68
2021/06/16 12:40:40;;;;;;;;;;;14.50;99.90;;;;;;5091368;28;19951;-69
2021/06/16 12:43:12;;;;;;;;;;;14.40;99.90;;;;;;5091135;28;20385;-71
2021/06/16 12:45:38;;;;;;;;;;;14.30;99.90;;;;;;5090792;28;19962;-71
2021/06/16 12:48:20;;;;;;;;;;;14.20;99.90;;;;;;5091263;28;19908;-70
2021/06/16 12:50:59;;;;;;;;;;;14.20;99.90;;;;;;5091137;28;19913;-70
2021/06/16 12:53:27;;;;;;;;;;;14.10;99.90;;;;;;5091266;28;19908;-69
2021/06/16 12:55:53;;;;;;;;;;;13.90;99.90;;;;;;5091083;28;19909;-71
2021/06/16 12:58:23;;;;;;;;;;;13.80;99.90;;;;;;5090396;28;19912;-71
2021/06/16 13:00:51;;;;;;;;;;;13.70;99.90;;;;;;5090856;28;19916;-72
2021/06/16 13:03:21;;;;;;;;;;;13.60;99.90;;;;;;5090561;28;19909;-71
2021/06/16 13:06:04;;;;;;;;;;;13.60;99.90;;;;;;5091213;28;19912;-72
2021/06/16 13:08:38;;;;;;;;;;;13.50;99.90;;;;;;5090935;28;19962;-71
2021/06/16 13:11:16;;;;;;;;;;;13.30;99.90;;;;;;5090727;28;19943;-70
2021/06/16 13:13:43;;;;;;;;;;;13.30;99.90;;;;;;5090146;28;20404;-71
2021/06/16 13:16:21;;;;;;;;;;;13.20;99.90;;;;;;5090998;28;20362;-71
2021/06/16 13:18:47;;;;;;;;;;;13.30;99.90;;;;;;5091078;28;19987;-72
2021/06/16 13:21:14;;;;;;;;;;;13.40;99.90;;;;;;5091134;28;20382;-70
2021/06/16 13:23:49;;;;;;;;;;;13.40;99.90;;;;;;5090864;28;20007;-70
2021/06/16 13:26:16;;;;;;;;;;;13.30;99.90;;;;;;5090733;28;19908;-70
2021/06/16 13:28:43;;;;;;;;;;;13.30;99.90;;;;;;5090435;28;20362;-70
2021/06/16 13:31:19;;;;;;;;;;;13.50;99.90;;;;;;5086738;28;19920;-71
2021/06/16 13:33:48;;;;;;;;;;;13.50;99.90;;;;;;5070449;28;20370;-70
2021/06/16 13:36:17;;;;;;;;;;;13.50;99.90;;;;;;5070725;28;19961;-70
2021/06/16 13:38:49;;;;;;;;;;;13.50;99.90;;;;;;5070689;28;20359;-70
2021/06/16 13:41:17;;;;;;;;;;;13.40;99.90;;;;;;5069265;28;19913;-69
2021/06/16 13:43:44;;;;;;;;;;;13.30;99.90;;;;;;5070622;28;19915;-71
2021/06/16 13:46:12;;;;;;;;;;;13.30;99.90;;;;;;5070268;28;19962;-70
2021/06/16 13:48:38;;;;;;;;;;;13.30;99.90;;;;;;5070532;28;19923;-69
2021/06/16 13:51:06;;;;;;;;;;;13.30;99.90;;;;;;5070486;28;19970;-71
2021/06/16 13:53:33;;;;;;;;;;;13.20;99.90;;;;;;5070276;28;20322;-70
2021/06/16 13:56:01;;;;;;;;;;;13.20;99.90;;;;;;5070549;28;19962;-72
2021/06/16 13:58:28;;;;;;;;;;;13.20;99.90;;;;;;5071021;28;19997;-70
2021/06/16 14:00:55;;;;;;;;;;;13.10;99.90;;;;;;5071444;28;19908;-71
2021/06/16 14:03:21;;;;;;;;;;;13.10;99.90;;;;;;5086810;28;20395;-71
2021/06/16 14:05:48;;;;;;;;;;;13.00;99.90;;;;;;5076418;28;19912;-71
2021/06/16 14:08:15;;;;;;;;;;;13.00;99.90;;;;;;5079382;28;19908;-71
2021/06/16 14:10:42;;;;;;;;;;;13.00;99.90;;;;;;5070264;28;19912;-70
2021/06/16 14:13:08;;;;;;;;;;;13.00;99.90;;;;;;5070138;28;19924;-70
2021/06/16 14:15:35;;;;;;;;;;;13.00;99.90;;;;;;5072237;28;20423;-71
2021/06/16 14:18:03;;;;;;;;;;;13.00;99.90;;;;;;5073943;28;20263;-72
2021/06/16 14:20:29;;;;;;;;;;;12.90;99.90;;;;;;5073914;28;19909;-72
2021/06/16 14:22:56;;;;;;;;;;;12.90;99.90;;;;;;5073855;28;19913;-69
2021/06/16 14:25:26;;;;;;;;;;;12.70;99.90;;;;;;5073526;28;20370;-72
2021/06/16 14:27:52;;;;;;;;;;;12.70;99.90;;;;;;5073584;28;19914;-71
2021/06/16 14:30:21;;;;;;;;;;;12.60;99.90;;;;;;5073475;28;20436;-71